Main page
METAR-TAF:

METAR-TAF

Airports :

London Biggin Hill Airport

London Biggin Hill, England

latitude: 51-19N, longitude: 000-02E, elevation: 183 m

Current weather observation

The report was made 6 hours and 31 minutes ago, at 22:20 UTC
Wind 2 kt from the North/Northeast
Temperature 0°C
Humidity 100%
Pressure 1005 hPa
Visibility: 1000 m
Broken clouds at a height of 200 ft
snow, mist

METAR: EGKB 202220Z 02002KT 1000 R21/P0800 SN BR BKN002 00/M00 Q1005

Time: 04:51 (04:51 UTC)

Forecast

The report was made 6 hours and 21 minutes ago, at 22:30 UTC
Forecast valid from 20 at 22 UTC to 20 at 23 UTC
Wind 9 kt from the Northeast
Visibility 10 km or more
Scattered clouds at a height of 3000 ft
Temporary
from 20 at 22 UTC to 20 at 23 UTC
Visibility: 1000 m
Broken clouds at a height of 300 ft
snow

TAF: EGKB 202230Z 2022/2023 05009KT 9999 SCT030 TEMPO 2022/2023 1000 SN BKN003

Weather observations and forecasts of more than 4000 airports (METAR and TAF reports).

The available stations are represented by yellow and red dots on the map.

Hover mouse over dot to see the name of the station.

Then click to see weather observations and forecasts.

To change the map : click on the green buttons with a black cross to zoom in, on the green button with a dash to zoom out, or on the green arrows for adjacent maps.


METAR-TAF: